Torning, Denmark
Current Conditions -  °F | °C
As of 9:20 AM on Thursday 27 Nov 2014 (Local Time) from EKKA Reporting Station
Clear Clear  
Wind Chill: 32°   Ceiling: Unl
Heat Index: 39°   Visibility: 6mi
Dew Point: 36°   Wind: 12mph
Humidity: 87%   Direction: 100°E
Pressure: 30.03"   Gusts: NA
Location:  56.28°N, 9.33°E
Report Text: EKKA 270820Z AUTO 10010KT 9999NDV NCD 04/02 Q1017 NOSIG
Loading
Personal Weather Stations






























Interactive Weather Map New forecast layout! Learn more

10-Day Weather Forecast

Advertisements
Track Severe Weather on mobile